Time;durP1;ratioP1;P1;durP2;ratioP2;P2;SDS_P1;SDS_P2;PMS_P1;PMS_P2;Temp;Humidity;BMP_temperature;BMP_pressure;BME280_temperature;BME280_humidity;BME280_pressure;Samples;Min_cycle;Max_cycle;Signal;HPM_P1;HPM_P2
2021/03/17 00:02:26;;;;;;;4.63;0.65;;;6.50;91.60;;;;;;5187624;23;20060;-86
2021/03/17 00:06:02;;;;;;;;;;;;;;;;;;;;;
2021/03/17 00:08:29;;;;;;;2.33;0.50;;;6.50;91.50;;;;;;4863780;29;20063;-86
2021/03/17 00:10:58;;;;;;;2.85;0.47;;;6.50;91.50;;;;;;4910691;29;20123;-86
2021/03/17 00:13:28;;;;;;;3.90;0.70;;;6.50;91.50;;;;;;4917173;29;20139;-85
2021/03/17 00:15:57;;;;;;;1.40;0.60;;;6.50;91.60;;;;;;4917743;29;20131;-85
2021/03/17 00:18:23;;;;;;;1.20;0.55;;;6.50;91.60;;;;;;4917737;29;20139;-86
2021/03/17 00:20:58;;;;;;;1.02;0.50;;;6.50;91.50;;;;;;4916984;29;20054;-86
2021/03/17 00:23:24;;;;;;;4.25;0.70;;;6.50;91.70;;;;;;4917738;29;20067;-87
2021/03/17 00:25:53;;;;;;;3.60;0.60;;;6.50;91.60;;;;;;4917475;29;20044;-87
2021/03/17 00:28:21;;;;;;;3.63;0.70;;;6.50;91.50;;;;;;4917021;29;20056;-85
2021/03/17 00:30:55;;;;;;;2.42;0.75;;;6.50;91.50;;;;;;4905321;29;20137;-85
2021/03/17 00:33:21;;;;;;;4.38;0.90;;;6.40;91.50;;;;;;4897904;29;20119;-86
2021/03/17 00:35:47;;;;;;;3.13;0.80;;;6.40;91.40;;;;;;4898303;29;20056;-86
2021/03/17 00:38:13;;;;;;;0.80;0.50;;;6.40;91.20;;;;;;4897993;29;20052;-86
2021/03/17 00:40:43;;;;;;;2.22;0.82;;;6.40;91.30;;;;;;4906835;29;20181;-86
2021/03/17 00:43:21;;;;;;;3.20;0.85;;;6.30;91.20;;;;;;4916620;29;20056;-86
2021/03/17 00:49:03;;;;;;;4.55;0.90;;;6.30;91.10;;;;;;4859748;29;20060;-86
2021/03/17 00:51:34;;;;;;;3.72;1.10;;;6.30;91.20;;;;;;4916729;29;20048;-84
2021/03/17 00:54:24;;;;;;;6.30;1.25;;;6.30;91.20;;;;;;4917245;29;20063;-86
2021/03/17 00:57:41;;;;;;;4.55;1.23;;;6.20;91.20;;;;;;4916697;29;20095;-85
2021/03/17 01:00:26;;;;;;;3.33;0.90;;;6.20;91.20;;;;;;4890672;29;20074;-85
2021/03/17 01:02:58;;;;;;;2.70;0.80;;;6.20;91.20;;;;;;4897347;29;20067;-85
2021/03/17 01:13:34;;;;;;;6.20;1.42;;;6.10;91.30;;;;;;4898213;29;20082;-85
2021/03/17 01:16:00;;;;;;;3.72;1.23;;;6.10;91.20;;;;;;4898097;29;20408;-85
2021/03/17 01:18:32;;;;;;;4.07;1.13;;;6.10;91.10;;;;;;4896478;29;20127;-85
2021/03/17 01:21:06;;;;;;;2.35;0.90;;;6.00;91.10;;;;;;4897881;29;20052;-85
2021/03/17 01:23:32;;;;;;;3.10;1.00;;;6.00;91.20;;;;;;4897656;29;20127;-86
2021/03/17 01:25:59;;;;;;;4.72;1.15;;;6.10;91.40;;;;;;4897263;29;20120;-85
2021/03/17 01:28:26;;;;;;;5.88;0.95;;;6.10;91.50;;;;;;4897288;29;20049;-85
2021/03/17 01:30:55;;;;;;;3.00;0.90;;;6.10;91.50;;;;;;4907608;29;20545;-86
2021/03/17 01:33:53;;;;;;;5.57;1.10;;;6.10;91.60;;;;;;4897326;29;20480;-85
2021/03/17 01:36:25;;;;;;;6.32;1.00;;;6.10;91.60;;;;;;4897316;29;20064;-84
2021/03/17 01:38:59;;;;;;;3.83;0.93;;;6.00;91.40;;;;;;4896376;29;20482;-85
2021/03/17 01:41:31;;;;;;;7.75;1.20;;;6.00;91.30;;;;;;4911454;29;20052;-85
2021/03/17 01:44:07;;;;;;;3.78;0.93;;;6.00;91.30;;;;;;4916221;29;20111;-86
2021/03/17 01:46:52;;;;;;;4.93;0.90;;;6.00;91.30;;;;;;4887712;29;20560;-85
2021/03/17 01:49:27;;;;;;;4.10;0.90;;;6.00;91.40;;;;;;4897775;29;20057;-86
2021/03/17 01:51:59;;;;;;;4.78;0.90;;;6.00;91.50;;;;;;4897255;29;20045;-85
2021/03/17 01:54:31;;;;;;;4.57;0.98;;;5.90;91.30;;;;;;4897399;29;20053;-85
2021/03/17 01:57:29;;;;;;;5.00;0.88;;;5.90;91.40;;;;;;4897705;29;20110;-85
2021/03/17 01:59:55;;;;;;;6.85;1.05;;;5.90;91.40;;;;;;4894039;29;20053;-85
2021/03/17 02:02:22;;;;;;;5.10;1.10;;;5.90;91.30;;;;;;4897186;29;20060;-85
2021/03/17 02:05:06;;;;;;;3.13;1.08;;;5.90;91.20;;;;;;4897376;29;20057;-85
2021/03/17 02:08:09;;;;;;;;;;;;;;;;;;;;;
2021/03/17 02:10:56;;;;;;;9.45;1.10;;;5.80;91.10;;;;;;4864986;29;20052;-85
2021/03/17 02:14:00;;;;;;;3.60;0.80;;;5.80;91.20;;;;;;4914947;29;20052;-85
2021/03/17 02:17:29;;;;;;;3.70;0.82;;;5.80;91.30;;;;;;4915161;29;20119;-86
2021/03/17 02:20:26;;;;;;;5.47;1.20;;;5.80;91.20;;;;;;4858132;29;20050;-86
2021/03/17 02:23:56;;;;;;;5.72;1.08;;;5.70;91.30;;;;;;4809502;29;20422;-85
2021/03/17 02:26:52;;;;;;;5.63;0.98;;;5.70;91.30;;;;;;4837715;29;20077;-86
2021/03/17 02:29:58;;;;;;;5.30;1.00;;;5.70;91.40;;;;;;4835286;29;20125;-85
2021/03/17 02:36:34;;;;;;;4.80;1.20;;;5.70;91.40;;;;;;4828588;29;20057;-86
2021/03/17 02:39:19;;;;;;;5.60;1.10;;;5.60;91.50;;;;;;4838223;29;20141;-86
2021/03/17 02:42:02;;;;;;;4.07;1.00;;;5.70;91.60;;;;;;4904549;29;20055;-86
2021/03/17 02:45:21;;;;;;;4.07;1.00;;;5.70;91.60;;;;;;4913487;29;20123;-85
2021/03/17 02:48:07;;;;;;;5.68;0.90;;;5.70;91.50;;;;;;4897166;29;20405;-85
2021/03/17 02:50:34;;;;;;;5.38;1.02;;;5.70;91.40;;;;;;4874671;29;20071;-85
2021/03/17 02:53:08;;;;;;;3.42;0.85;;;5.70;91.60;;;;;;4897178;29;20065;-85
2021/03/17 02:56:08;;;;;;;4.88;1.10;;;5.70;92.00;;;;;;4896563;29;20056;-84
2021/03/17 02:59:10;;;;;;;4.95;1.02;;;5.70;91.70;;;;;;4900280;29;20505;-85
2021/03/17 03:02:08;;;;;;;5.18;1.13;;;5.70;91.60;;;;;;4823361;29;20050;-85
2021/03/17 03:04:54;;;;;;;4.07;1.00;;;5.70;91.80;;;;;;4898971;29;20489;-86
2021/03/17 03:07:32;;;;;;;7.25;1.10;;;5.70;91.70;;;;;;4918599;29;20056;-85
2021/03/17 03:10:00;;;;;;;2.92;0.80;;;5.70;91.70;;;;;;4915016;29;20520;-85
2021/03/17 03:12:27;;;;;;;6.63;1.08;;;5.60;91.80;;;;;;4918697;29;20048;-85
2021/03/17 03:15:08;;;;;;;3.50;0.88;;;5.60;91.90;;;;;;4919106;29;20460;-85
2021/03/17 03:17:39;;;;;;;3.80;1.02;;;5.70;92.00;;;;;;4918461;29;20059;-85
2021/03/17 03:20:08;;;;;;;3.13;0.95;;;5.70;92.00;;;;;;4918913;29;20127;-85
2021/03/17 03:22:35;;;;;;;3.72;1.00;;;5.60;92.00;;;;;;4870334;29;20055;-85
2021/03/17 03:25:24;;;;;;;4.45;0.93;;;5.60;91.90;;;;;;4908208;29;20056;-84
2021/03/17 03:27:55;;;;;;;4.18;0.88;;;5.60;91.90;;;;;;4900074;29;20056;-85
2021/03/17 03:30:54;;;;;;;4.30;1.05;;;5.60;92.30;;;;;;4899447;29;20056;-85
2021/03/17 03:33:22;;;;;;;2.25;0.63;;;5.60;91.80;;;;;;4897651;29;20100;-85
2021/03/17 03:36:14;;;;;;;5.15;0.88;;;5.50;92.10;;;;;;4897504;29;20072;-85
2021/03/17 03:38:58;;;;;;;5.25;1.10;;;5.50;91.60;;;;;;4899173;29;20055;-85
2021/03/17 03:41:25;;;;;;;6.07;1.10;;;5.50;91.80;;;;;;4900751;29;20057;-86
2021/03/17 03:43:55;;;;;;;5.70;0.90;;;5.50;91.70;;;;;;4918518;29;20437;-85
2021/03/17 03:46:37;;;;;;;;;;;;;;;;;;;;;
2021/03/17 03:49:18;;;;;;;5.00;0.77;;;5.50;91.70;;;;;;4909755;29;20505;-85
2021/03/17 03:52:05;;;;;;;2.53;0.70;;;5.40;91.70;;;;;;4917987;29;20048;-85
2021/03/17 03:54:50;;;;;;;3.72;1.05;;;5.40;91.70;;;;;;4918026;29;20072;-86
2021/03/17 03:57:24;;;;;;;3.83;0.85;;;5.40;91.70;;;;;;4918386;29;20060;-86
2021/03/17 03:59:59;;;;;;;5.97;0.88;;;5.40;91.70;;;;;;4914733;29;20071;-86
2021/03/17 04:02:50;;;;;;;5.38;1.20;;;5.30;91.70;;;;;;4898765;29;20072;-86
2021/03/17 04:05:36;;;;;;;4.72;0.88;;;5.30;91.70;;;;;;4898560;29;20059;-86
2021/03/17 04:08:09;;;;;;;4.22;0.90;;;5.30;91.80;;;;;;4899187;29;20041;-85
2021/03/17 04:10:37;;;;;;;6.03;1.10;;;5.20;91.90;;;;;;4905492;29;20493;-84
2021/03/17 04:13:06;;;;;;;3.67;0.93;;;5.20;91.80;;;;;;4917026;29;20075;-86
2021/03/17 04:16:21;;;;;;;6.40;1.02;;;5.20;91.90;;;;;;4917894;29;20059;-85
2021/03/17 04:18:51;;;;;;;3.42;0.90;;;5.20;91.80;;;;;;4859473;29;20049;-85
2021/03/17 04:21:24;;;;;;;4.22;1.00;;;5.20;92.00;;;;;;4842873;29;20081;-85
2021/03/17 04:23:55;;;;;;;4.22;1.00;;;5.20;92.00;;;;;;4841183;29;20133;-85
2021/03/17 04:26:29;;;;;;;4.13;1.00;;;5.20;92.10;;;;;;4840821;29;20106;-85
2021/03/17 04:28:56;;;;;;;3.75;1.00;;;5.10;92.10;;;;;;4844584;29;20539;-85
2021/03/17 04:31:41;;;;;;;4.78;1.20;;;5.10;92.10;;;;;;4917473;29;20135;-84
2021/03/17 04:34:08;;;;;;;3.90;1.00;;;5.10;92.10;;;;;;4913893;29;20182;-85
2021/03/17 04:36:34;;;;;;;3.55;1.00;;;5.10;92.10;;;;;;4917922;29;20091;-85
2021/03/17 04:39:01;;;;;;;5.88;1.10;;;5.00;92.10;;;;;;4915874;29;20067;-84
2021/03/17 04:41:29;;;;;;;3.60;1.10;;;5.10;92.20;;;;;;4916695;29;20103;-85
2021/03/17 04:43:58;;;;;;;3.22;1.02;;;5.00;92.10;;;;;;4917620;29;20551;-85
2021/03/17 04:46:24;;;;;;;4.18;1.00;;;5.00;92.20;;;;;;4917107;29;20504;-84
2021/03/17 04:48:51;;;;;;;4.30;1.10;;;4.90;92.00;;;;;;4916931;29;20067;-85
2021/03/17 04:51:24;;;;;;;4.28;1.00;;;4.90;91.90;;;;;;4916166;29;20051;-84
2021/03/17 04:53:49;;;;;;;4.75;1.20;;;4.90;91.90;;;;;;4917217;29;20048;-85
2021/03/17 04:56:28;;;;;;;4.07;1.00;;;4.90;91.80;;;;;;4916623;29;20052;-85
2021/03/17 04:58:55;;;;;;;4.70;1.05;;;4.90;92.00;;;;;;4917340;29;20056;-85
2021/03/17 05:01:21;;;;;;;6.85;1.33;;;4.80;91.80;;;;;;4914228;29;20135;-85
2021/03/17 05:03:59;;;;;;;5.97;1.30;;;4.90;91.80;;;;;;4898160;29;20108;-85
2021/03/17 05:06:35;;;;;;;5.32;1.30;;;4.80;91.90;;;;;;4898030;29;20048;-85
2021/03/17 05:09:02;;;;;;;3.70;1.15;;;4.80;92.00;;;;;;4893766;29;20048;-85
2021/03/17 05:11:29;;;;;;;5.47;0.90;;;4.80;91.90;;;;;;4878529;29;20445;-85
2021/03/17 05:13:54;;;;;;;5.35;1.30;;;4.80;91.90;;;;;;4879376;29;20068;-85
2021/03/17 05:16:56;;;;;;;5.47;1.20;;;4.80;91.80;;;;;;4878605;29;20053;-85
2021/03/17 05:22:55;;;;;;;4.72;1.15;;;4.80;91.70;;;;;;4833461;29;20052;-85
2021/03/17 05:30:09;;;;;;;4.38;1.30;;;4.70;91.80;;;;;;4894114;29;20040;-85
2021/03/17 05:40:56;;;;;;;5.68;1.25;;;4.60;91.60;;;;;;5001882;23;20051;-85
2021/03/17 05:43:25;;;;;;;5.20;1.30;;;4.60;91.70;;;;;;4897664;29;20049;-85
2021/03/17 05:45:51;;;;;;;5.65;1.30;;;4.60;91.50;;;;;;4897163;29;20059;-85
2021/03/17 05:48:32;;;;;;;4.97;1.10;;;4.60;91.70;;;;;;4897552;29;20176;-86
2021/03/17 05:51:48;;;;;;;4.82;1.15;;;4.60;91.70;;;;;;4890674;29;20063;-85
2021/03/17 05:54:20;;;;;;;9.88;1.45;;;4.60;91.70;;;;;;4876577;29;20048;-86
2021/03/17 05:57:04;;;;;;;6.60;1.02;;;4.50;91.50;;;;;;4897878;29;20131;-85
2021/03/17 05:59:30;;;;;;;5.47;1.30;;;4.50;91.40;;;;;;4895337;29;20053;-86
2021/03/17 06:02:24;;;;;;;7.00;1.20;;;4.50;91.40;;;;;;4897348;29;20056;-86
2021/03/17 06:04:59;;;;;;;5.50;1.13;;;4.50;91.50;;;;;;4897688;29;20053;-85
2021/03/17 06:10:31;;;;;;;6.40;1.52;;;4.50;91.50;;;;;;4888708;29;20080;-86
2021/03/17 06:12:59;;;;;;;5.20;1.17;;;4.50;91.70;;;;;;4887097;29;20053;-86
2021/03/17 06:15:27;;;;;;;3.83;1.10;;;4.50;91.80;;;;;;4886714;29;20513;-84
2021/03/17 06:18:19;;;;;;;4.03;0.93;;;4.50;91.80;;;;;;4888714;29;20131;-86
2021/03/17 06:21:07;;;;;;;;;;;;;;;;;;;;;
2021/03/17 06:24:10;;;;;;;5.60;1.20;;;4.50;91.90;;;;;;4878689;29;20049;-85
2021/03/17 06:26:54;;;;;;;3.90;0.82;;;4.50;91.70;;;;;;4878089;29;20072;-83
2021/03/17 06:29:30;;;;;;;5.95;1.13;;;4.50;91.50;;;;;;4878486;29;20516;-84
2021/03/17 06:32:02;;;;;;;6.25;1.13;;;4.50;91.50;;;;;;4869819;29;20053;-84
2021/03/17 06:34:27;;;;;;;7.18;1.20;;;4.50;91.40;;;;;;4881341;29;20056;-83
2021/03/17 06:37:00;;;;;;;5.32;1.27;;;4.50;91.40;;;;;;4881891;29;20053;-84
2021/03/17 06:46:27;;;;;;;8.95;1.30;;;4.50;91.40;;;;;;4857294;29;20064;-82
2021/03/17 06:49:22;;;;;;;6.90;1.05;;;4.50;91.20;;;;;;4877736;29;20136;-82
2021/03/17 06:52:26;;;;;;;6.80;1.33;;;4.40;91.30;;;;;;4857121;29;20117;-87
2021/03/17 06:55:36;;;;;;;10.85;1.48;;;4.50;91.40;;;;;;4879015;29;20052;-84
2021/03/17 06:58:59;;;;;;;8.73;1.42;;;4.40;91.30;;;;;;4872575;29;20059;-85
2021/03/17 07:01:48;;;;;;;12.55;1.50;;;4.40;91.30;;;;;;4829323;29;20421;-84
2021/03/17 07:04:54;;;;;;;11.00;1.42;;;4.50;91.40;;;;;;4826180;29;20134;-84
2021/03/17 07:08:05;;;;;;;;;;;;;;;;;;;;;
2021/03/17 07:14:54;;;;;;;7.68;1.30;;;4.50;91.30;;;;;;4782196;30;20546;-83
2021/03/17 07:17:52;;;;;;;8.75;1.17;;;4.50;91.20;;;;;;4774625;30;20083;-84
2021/03/17 07:20:56;;;;;;;11.18;1.77;;;4.50;91.40;;;;;;4774997;29;20452;-84
2021/03/17 07:23:34;;;;;;;11.40;1.23;;;4.50;91.10;;;;;;4822541;29;20507;-84
2021/03/17 07:26:20;;;;;;;6.90;1.10;;;4.50;91.20;;;;;;4864370;29;20062;-83
2021/03/17 07:29:19;;;;;;;7.75;1.48;;;4.50;91.30;;;;;;4873208;29;20105;-84
2021/03/17 07:32:01;;;;;;;11.13;1.67;;;4.50;91.20;;;;;;4873698;29;20060;-84
2021/03/17 07:34:53;;;;;;;6.93;1.25;;;4.50;91.10;;;;;;4878711;29;20117;-84
2021/03/17 07:37:26;;;;;;;9.57;1.48;;;4.50;91.10;;;;;;4875630;29;20055;-84
2021/03/17 07:39:57;;;;;;;9.38;1.73;;;4.60;91.10;;;;;;4874635;29;20053;-84
2021/03/17 07:42:24;;;;;;;7.00;1.40;;;4.60;91.10;;;;;;4883639;29;20063;-85
2021/03/17 07:45:24;;;;;;;9.02;1.88;;;4.60;91.10;;;;;;4848155;29;20121;-84
2021/03/17 07:47:54;;;;;;;12.52;1.60;;;4.70;91.20;;;;;;4904026;29;20105;-84
2021/03/17 07:55:19;;;;;;;9.30;1.50;;;4.80;90.90;;;;;;4851013;29;20060;-84
2021/03/17 08:00:55;;;;;;;10.30;1.65;;;4.90;90.80;;;;;;4865433;29;20056;-87
2021/03/17 08:03:24;;;;;;;12.65;2.20;;;4.90;90.80;;;;;;4898728;29;20052;-85
2021/03/17 08:05:51;;;;;;;14.25;1.58;;;5.00;90.40;;;;;;4890359;29;20550;-85
2021/03/17 08:08:23;;;;;;;11.98;1.65;;;5.10;90.30;;;;;;4898468;29;20512;-85
2021/03/17 08:10:55;;;;;;;10.13;1.42;;;5.20;90.30;;;;;;4896878;29;20049;-85
2021/03/17 08:13:30;;;;;;;8.93;1.42;;;5.20;90.00;;;;;;4897850;29;20048;-85
2021/03/17 08:15:56;;;;;;;9.48;1.95;;;5.30;90.00;;;;;;4898755;29;20100;-85
2021/03/17 08:18:37;;;;;;;9.75;1.60;;;5.40;90.10;;;;;;4898399;29;20489;-85
2021/03/17 08:21:03;;;;;;;10.50;1.60;;;5.50;90.00;;;;;;4897881;29;21387;-85
2021/03/17 08:23:48;;;;;;;10.43;1.48;;;5.50;89.60;;;;;;4898728;29;20104;-86
2021/03/17 08:26:19;;;;;;;10.02;1.55;;;5.60;86.90;;;;;;4889897;29;20049;-86
2021/03/17 08:28:50;;;;;;;13.57;2.00;;;5.60;87.80;;;;;;4895567;29;20489;-86
2021/03/17 08:31:37;;;;;;;13.88;1.90;;;5.70;87.00;;;;;;4898205;29;20409;-86
2021/03/17 08:34:24;;;;;;;8.30;1.55;;;5.80;87.10;;;;;;4897099;29;20060;-86
2021/03/17 08:36:54;;;;;;;8.52;1.40;;;5.80;86.30;;;;;;4898813;29;20053;-86
2021/03/17 08:39:29;;;;;;;7.88;1.55;;;5.80;86.10;;;;;;4899427;29;20056;-86
2021/03/17 08:42:01;;;;;;;12.02;1.90;;;5.80;87.10;;;;;;4892852;29;20159;-85
2021/03/17 08:44:39;;;;;;;8.15;1.40;;;5.90;86.40;;;;;;4874278;29;20045;-88
2021/03/17 08:47:18;;;;;;;8.90;1.65;;;5.90;86.30;;;;;;4877896;29;20055;-87
2021/03/17 08:49:49;;;;;;;10.77;1.85;;;5.90;86.70;;;;;;4877493;29;20124;-88
2021/03/17 08:52:18;;;;;;;17.00;2.58;;;5.90;87.30;;;;;;4872422;29;20240;-87
2021/03/17 08:54:50;;;;;;;13.13;1.55;;;6.00;87.20;;;;;;4859502;29;20136;-85
2021/03/17 08:57:17;;;;;;;11.75;1.55;;;6.00;87.30;;;;;;4874736;29;20053;-86
2021/03/17 09:00:00;;;;;;;13.00;2.42;;;6.00;86.90;;;;;;4879134;29;20057;-87
2021/03/17 09:03:33;;;;;;;16.63;2.00;;;6.10;86.60;;;;;;4853610;29;20137;-87
2021/03/17 09:07:17;;;;;;;;;;;;;;;;;;;;;
2021/03/17 09:24:47;;;;;;;10.43;1.40;;;6.30;87.90;;;;;;4881005;29;20401;-87
2021/03/17 09:28:29;;;;;;;9.43;1.45;;;6.30;88.10;;;;;;4887287;29;20100;-90
2021/03/17 09:35:09;;;;;;;9.57;1.60;;;6.40;85.90;;;;;;4866430;29;20514;-89
2021/03/17 09:37:59;;;;;;;11.13;1.63;;;6.50;85.40;;;;;;4902913;29;20493;-86
2021/03/17 09:40:33;;;;;;;8.30;1.45;;;6.50;85.80;;;;;;4914217;29;20504;-86
2021/03/17 09:42:58;;;;;;;8.70;1.50;;;6.50;84.70;;;;;;4897251;29;20052;-88
2021/03/17 10:03:51;;;;;;;15.77;1.60;;;6.60;85.10;;;;;;4975584;23;20043;-85
2021/03/17 10:06:59;;;;;;;8.75;1.30;;;6.70;84.60;;;;;;4897266;29;20103;-84
2021/03/17 10:09:30;;;;;;;10.38;1.30;;;6.80;85.60;;;;;;4896308;29;20049;-87
2021/03/17 10:12:23;;;;;;;10.63;1.65;;;6.90;85.50;;;;;;4884682;29;20127;-88
2021/03/17 10:23:24;;;;;;;9.35;1.50;;;7.10;85.90;;;;;;4881591;29;20052;-85
2021/03/17 10:37:10;;;;;;;11.60;1.80;;;7.10;83.40;;;;;;4861690;29;20049;-88
2021/03/17 10:40:26;;;;;;;11.23;1.40;;;7.10;82.90;;;;;;5009714;23;20056;-87
2021/03/17 10:43:30;;;;;;;8.85;1.50;;;7.10;83.20;;;;;;4903159;29;20155;-87
2021/03/17 10:46:34;;;;;;;11.87;1.63;;;7.10;83.30;;;;;;4891222;29;20195;-88
2021/03/17 11:04:24;;;;;;;8.48;1.25;;;7.20;81.70;;;;;;4930820;29;20114;-86
2021/03/17 11:29:40;;;;;;;;;;;;;;;;;;;;;
2021/03/17 11:35:56;;;;;;;;;;;;;;;;;;;;;
2021/03/17 11:39:31;;;;;;;9.88;1.40;;;7.50;81.60;;;;;;4845547;29;20055;-87
2021/03/17 12:00:05;;;;;;;9.52;1.10;;;7.60;80.40;;;;;;4880072;29;20521;-86
2021/03/17 12:02:35;;;;;;;9.25;1.38;;;7.60;79.90;;;;;;4883836;29;20075;-89
2021/03/17 12:46:58;;;;;;;6.30;1.20;;;8.00;78.10;;;;;;5123281;23;20052;-85
2021/03/17 13:10:20;;;;;;;7.65;1.40;;;8.10;75.40;;;;;;5029209;23;20465;-87
2021/03/17 13:12:56;;;;;;;12.13;1.42;;;8.10;75.30;;;;;;4904232;29;20052;-94
2021/03/17 13:15:23;;;;;;;9.45;1.20;;;8.20;76.20;;;;;;4898542;29;20088;-93
2021/03/17 13:18:30;;;;;;;7.05;1.00;;;8.20;77.00;;;;;;4898930;29;20465;-91
2021/03/17 13:20:56;;;;;;;8.70;1.30;;;8.20;78.00;;;;;;5055535;23;20060;-90
2021/03/17 13:23:22;;;;;;;6.55;0.98;;;8.30;79.00;;;;;;4916677;29;20067;-92
2021/03/17 13:25:47;;;;;;;8.88;1.27;;;8.40;79.70;;;;;;4918995;29;20052;-92
2021/03/17 13:28:14;;;;;;;10.02;1.27;;;8.40;79.10;;;;;;4915864;29;20055;-90
2021/03/17 13:30:50;;;;;;;;;;;;;;;;;;;;;
2021/03/17 13:33:23;;;;;;;10.32;1.27;;;8.40;77.30;;;;;;4900491;29;20055;-88
2021/03/17 13:35:52;;;;;;;7.53;1.40;;;8.40;76.20;;;;;;4916104;29;20131;-87
2021/03/17 13:39:01;;;;;;;9.68;1.48;;;8.40;76.80;;;;;;4916238;29;20083;-88
2021/03/17 13:41:31;;;;;;;6.82;1.02;;;8.40;75.90;;;;;;4914398;29;20107;-84
2021/03/17 13:47:54;;;;;;;7.57;1.25;;;8.40;75.80;;;;;;4840729;29;20540;-86
2021/03/17 13:50:28;;;;;;;6.47;0.98;;;8.50;77.70;;;;;;5018779;23;20136;-87
2021/03/17 13:53:12;;;;;;;9.45;1.20;;;8.50;78.30;;;;;;4898868;29;20060;-88
2021/03/17 13:58:54;;;;;;;6.80;1.38;;;8.50;77.60;;;;;;4875460;29;19919;-88
2021/03/17 14:05:03;;;;;;;6.80;1.33;;;8.50;79.70;;;;;;4866016;29;20067;-88
2021/03/17 14:07:31;;;;;;;7.28;1.42;;;8.50;80.50;;;;;;4914096;29;20056;-88
2021/03/17 14:14:25;;;;;;;7.95;1.35;;;8.60;78.40;;;;;;4903552;29;20047;-88
2021/03/17 15:15:17;;;;;;;8.55;1.42;;;8.90;82.10;;;;;;5669202;23;20066;-90
2021/03/17 15:18:26;;;;;;;6.88;1.80;;;8.90;82.50;;;;;;4943625;29;20067;-89
2021/03/17 15:21:33;;;;;;;4.28;1.05;;;8.80;80.90;;;;;;4939262;29;20047;-88
2021/03/17 15:24:32;;;;;;;5.05;1.00;;;8.80;80.20;;;;;;4936720;29;20051;-89
2021/03/17 15:26:57;;;;;;;6.47;1.50;;;8.70;79.70;;;;;;4941528;29;20047;-89
2021/03/17 15:31:58;;;;;;;7.13;1.13;;;8.60;79.70;;;;;;5137445;23;20067;-89
2021/03/17 15:38:27;;;;;;;6.30;1.30;;;8.50;80.50;;;;;;4907613;29;20077;-90
2021/03/17 15:40:55;;;;;;;8.90;1.30;;;8.50;79.10;;;;;;4904448;29;20056;-87
2021/03/17 15:43:23;;;;;;;5.18;1.15;;;8.40;80.40;;;;;;4898748;29;20048;-87
2021/03/17 15:46:04;;;;;;;7.47;1.15;;;8.40;82.00;;;;;;4904896;29;20040;-89
2021/03/17 15:48:58;;;;;;;11.02;1.60;;;8.40;83.20;;;;;;4899931;29;20052;-86
2021/03/17 15:52:01;;;;;;;9.02;1.80;;;8.50;81.60;;;;;;4889089;29;20044;-87
2021/03/17 15:54:54;;;;;;;6.82;1.42;;;8.50;80.10;;;;;;4915281;29;20409;-93
2021/03/17 15:57:32;;;;;;;10.98;2.58;;;8.50;81.60;;;;;;4913842;29;20059;-89
2021/03/17 15:59:58;;;;;;;8.50;1.60;;;8.40;80.60;;;;;;4918535;29;20095;-90
2021/03/17 16:02:30;;;;;;;7.00;1.10;;;8.50;81.60;;;;;;4918579;29;20052;-91
2021/03/17 16:05:56;;;;;;;10.35;1.60;;;8.40;81.40;;;;;;4917134;29;20468;-90
2021/03/17 16:08:30;;;;;;;12.30;1.70;;;8.40;80.00;;;;;;4896773;29;20052;-89
2021/03/17 16:11:05;;;;;;;9.43;1.40;;;8.40;82.30;;;;;;4917364;29;20059;-91
2021/03/17 16:13:58;;;;;;;7.35;1.20;;;8.40;82.80;;;;;;4917822;29;20058;-90
2021/03/17 16:16:29;;;;;;;12.05;2.10;;;8.40;84.10;;;;;;4918183;29;20493;-90
2021/03/17 16:18:58;;;;;;;7.85;1.50;;;8.40;82.60;;;;;;4917680;29;20563;-88
2021/03/17 16:22:12;;;;;;;10.18;2.30;;;8.40;82.80;;;;;;4918133;29;20048;-90
2021/03/17 16:24:57;;;;;;;11.85;1.75;;;8.40;81.00;;;;;;4840825;29;20085;-89
2021/03/17 16:33:10;;;;;;;8.43;1.58;;;8.20;80.50;;;;;;4930878;23;20404;-89
2021/03/17 16:35:57;;;;;;;10.00;1.48;;;8.20;81.30;;;;;;4922085;29;20052;-88
2021/03/17 16:38:25;;;;;;;6.90;1.40;;;8.10;79.70;;;;;;4917135;29;20812;-89
2021/03/17 16:41:22;;;;;;;8.18;1.48;;;8.10;81.70;;;;;;4918171;29;20076;-89
2021/03/17 16:47:25;;;;;;;11.93;1.40;;;8.10;82.70;;;;;;4917305;29;20048;-89
2021/03/17 16:50:06;;;;;;;8.82;1.52;;;8.10;82.30;;;;;;5112434;23;20064;-89
2021/03/17 16:52:34;;;;;;;10.60;1.80;;;8.20;84.20;;;;;;4898142;29;20123;-89
2021/03/17 16:55:02;;;;;;;5.78;1.50;;;8.20;85.00;;;;;;4898925;29;20056;-89
2021/03/17 16:58:07;;;;;;;8.05;1.35;;;8.30;85.70;;;;;;4896333;29;20045;-89
2021/03/17 17:01:00;;;;;;;8.45;1.50;;;8.40;86.60;;;;;;4874691;29;20048;-86
2021/03/17 17:03:25;;;;;;;5.50;1.40;;;8.50;86.90;;;;;;4897388;29;20041;-88
2021/03/17 17:06:02;;;;;;;8.10;1.55;;;8.60;87.20;;;;;;4891144;29;20075;-84
2021/03/17 17:08:34;;;;;;;6.05;1.23;;;8.60;87.40;;;;;;4879135;29;20052;-86
2021/03/17 17:11:05;;;;;;;7.38;1.25;;;8.70;87.60;;;;;;4888408;29;20060;-86
2021/03/17 17:13:34;;;;;;;7.25;1.40;;;8.70;87.60;;;;;;4892299;29;20120;-86
2021/03/17 17:16:00;;;;;;;7.95;1.50;;;8.70;87.50;;;;;;4895723;29;20131;-86
2021/03/17 17:19:00;;;;;;;8.68;1.23;;;8.70;87.30;;;;;;4896444;29;20562;-86
2021/03/17 17:22:00;;;;;;;6.65;1.50;;;8.80;87.60;;;;;;4895112;29;20564;-86
2021/03/17 17:28:57;;;;;;;6.45;1.35;;;8.70;87.90;;;;;;4915120;23;20527;-87
2021/03/17 17:31:30;;;;;;;11.10;1.67;;;8.70;87.90;;;;;;4890318;29;20048;-92
2021/03/17 17:34:15;;;;;;;7.15;1.40;;;8.60;87.80;;;;;;4903162;29;20060;-90
2021/03/17 17:36:57;;;;;;;7.25;1.27;;;8.60;88.10;;;;;;4903254;23;20044;-89
2021/03/17 17:39:27;;;;;;;8.30;1.52;;;8.60;88.10;;;;;;4905616;23;20053;-90
2021/03/17 17:41:58;;;;;;;9.18;1.45;;;8.60;88.40;;;;;;4912015;29;20131;-90
2021/03/17 17:44:59;;;;;;;6.88;1.58;;;8.60;88.00;;;;;;4868859;29;20091;-89
2021/03/17 17:47:33;;;;;;;4.25;1.20;;;8.50;88.00;;;;;;4916400;29;20519;-89
2021/03/17 17:50:03;;;;;;;5.57;1.40;;;8.50;88.50;;;;;;4914903;29;20052;-89
2021/03/17 17:52:28;;;;;;;13.77;3.58;;;8.50;88.60;;;;;;4916732;29;20062;-90
2021/03/17 17:55:06;;;;;;;8.00;1.73;;;8.50;87.60;;;;;;4914636;29;20398;-90
2021/03/17 17:57:42;;;;;;;;;;;;;;;;;;;;;
2021/03/17 18:00:55;;;;;;;9.38;2.58;;;8.40;87.80;;;;;;4900576;29;20052;-89
2021/03/17 18:03:32;;;;;;;9.52;2.78;;;8.30;87.50;;;;;;4915681;29;20056;-89
2021/03/17 18:05:58;;;;;;;9.05;2.42;;;8.30;88.00;;;;;;4902221;29;20135;-89
2021/03/17 18:08:31;;;;;;;11.32;2.90;;;8.30;88.10;;;;;;4905229;29;20060;-89
2021/03/17 18:10:59;;;;;;;8.38;2.58;;;8.30;88.30;;;;;;4911140;29;20067;-89
2021/03/17 18:23:32;;;;;;;9.60;2.88;;;8.00;86.10;;;;;;4915343;23;20108;-89
2021/03/17 18:32:31;;;;;;;10.75;2.80;;;7.80;88.00;;;;;;4914129;29;20472;-85
2021/03/17 18:34:59;;;;;;;13.82;3.35;;;7.80;87.90;;;;;;4916402;29;20135;-85
2021/03/17 18:37:25;;;;;;;9.07;2.40;;;7.70;87.70;;;;;;4906474;29;20087;-85
2021/03/17 18:39:51;;;;;;;9.93;2.78;;;7.70;87.30;;;;;;4914500;29;20088;-84
2021/03/17 18:42:35;;;;;;;9.63;2.47;;;7.60;87.00;;;;;;4911887;29;20537;-85
2021/03/17 18:45:06;;;;;;;10.07;2.63;;;7.50;87.60;;;;;;4917592;29;20056;-85
2021/03/17 18:47:54;;;;;;;10.18;2.60;;;7.40;88.10;;;;;;4913372;29;20462;-87
2021/03/17 18:50:34;;;;;;;10.73;2.30;;;7.40;88.70;;;;;;4915137;29;20060;-86
2021/03/17 18:53:04;;;;;;;7.75;2.58;;;7.40;87.80;;;;;;4904393;29;20112;-86
2021/03/17 18:59:31;;;;;;;8.80;2.63;;;7.30;88.30;;;;;;4903325;29;20107;-85
2021/03/17 19:05:24;;;;;;;10.00;2.05;;;7.20;89.10;;;;;;5099888;23;20060;-85
2021/03/17 19:08:10;;;;;;;7.97;2.10;;;7.20;88.80;;;;;;4906855;29;20052;-88
2021/03/17 19:11:29;;;;;;;10.60;1.80;;;7.00;88.90;;;;;;4897975;29;20420;-86
2021/03/17 19:24:28;;;;;;;10.70;3.88;;;6.80;88.90;;;;;;4886694;23;20562;-85
2021/03/17 19:27:06;;;;;;;9.88;2.83;;;6.70;88.50;;;;;;4917283;23;20079;-86
2021/03/17 19:29:54;;;;;;;9.68;2.53;;;6.70;87.70;;;;;;4886280;29;20394;-86
2021/03/17 19:32:23;;;;;;;11.02;2.97;;;6.70;88.20;;;;;;4880319;29;20450;-87
2021/03/17 19:34:54;;;;;;;10.93;3.28;;;6.60;88.60;;;;;;4883947;29;20155;-84
2021/03/17 19:37:57;;;;;;;9.48;3.00;;;6.50;89.00;;;;;;4880590;29;20056;-88
2021/03/17 19:43:32;;;;;;;8.82;2.50;;;6.40;89.20;;;;;;4894237;29;20053;-86
2021/03/17 19:45:59;;;;;;;9.63;2.90;;;6.40;89.70;;;;;;4897556;29;20056;-85
2021/03/17 19:48:26;;;;;;;9.05;3.00;;;6.40;89.80;;;;;;4880338;29;20061;-87
2021/03/17 19:50:52;;;;;;;7.38;2.60;;;6.40;90.00;;;;;;4885043;29;20055;-87
2021/03/17 19:53:18;;;;;;;7.72;2.72;;;6.40;90.10;;;;;;4886667;29;20057;-88
2021/03/17 19:55:44;;;;;;;9.13;2.85;;;6.30;90.10;;;;;;4887139;29;20059;-89
2021/03/17 19:58:11;;;;;;;9.32;3.10;;;6.30;90.20;;;;;;4891491;29;20060;-87
2021/03/17 20:00:40;;;;;;;11.05;2.90;;;6.30;90.20;;;;;;4892421;29;20053;-87
2021/03/17 20:03:12;;;;;;;12.70;3.15;;;6.30;90.30;;;;;;4878887;29;20462;-88
2021/03/17 20:06:25;;;;;;;11.98;3.40;;;6.20;90.20;;;;;;4887595;29;20045;-87
2021/03/17 20:08:56;;;;;;;10.90;2.92;;;6.20;90.20;;;;;;4889158;29;20570;-87
2021/03/17 20:11:21;;;;;;;10.95;2.90;;;6.20;90.40;;;;;;4892212;29;20497;-87
2021/03/17 20:17:38;;;;;;;10.93;3.00;;;6.10;90.30;;;;;;4894526;29;20048;-87
2021/03/17 20:37:06;;;;;;;9.20;2.53;;;5.70;90.10;;;;;;4867216;29;20139;-88